sensor_id;sensor_type;location;lat;lon;timestamp;P1;durP1;ratioP1;P2;durP2;ratioP2
966;SDS011;56108;48.730;9.304;2023-05-29T00:01:45;0.90;;;0.90;;
966;SDS011;56108;48.730;9.304;2023-05-29T00:03:56;0.85;;;0.75;;
966;SDS011;56108;48.730;9.304;2023-05-29T00:06:04;1.15;;;1.00;;
966;SDS011;56108;48.730;9.304;2023-05-29T00:08:13;2.17;;;1.50;;
966;SDS011;56108;48.730;9.304;2023-05-29T00:10:21;1.40;;;1.30;;
966;SDS011;56108;48.730;9.304;2023-05-29T00:12:29;2.03;;;1.55;;
966;SDS011;56108;48.730;9.304;2023-05-29T00:14:39;2.50;;;1.20;;
966;SDS011;56108;48.730;9.304;2023-05-29T00:16:47;1.38;;;1.30;;
966;SDS011;56108;48.730;9.304;2023-05-29T00:18:59;2.25;;;1.55;;
966;SDS011;56108;48.730;9.304;2023-05-29T00:21:07;0.95;;;0.95;;
966;SDS011;56108;48.730;9.304;2023-05-29T00:23:15;1.00;;;1.00;;
966;SDS011;56108;48.730;9.304;2023-05-29T00:25:23;1.33;;;1.23;;
966;SDS011;56108;48.730;9.304;2023-05-29T00:27:31;1.73;;;1.63;;
966;SDS011;56108;48.730;9.304;2023-05-29T00:29:40;1.13;;;0.88;;
966;SDS011;56108;48.730;9.304;2023-05-29T00:31:48;1.25;;;1.15;;
966;SDS011;56108;48.730;9.304;2023-05-29T00:34:01;1.58;;;1.48;;
966;SDS011;56108;48.730;9.304;2023-05-29T00:36:09;1.42;;;1.33;;
966;SDS011;56108;48.730;9.304;2023-05-29T00:38:17;1.58;;;1.15;;
966;SDS011;56108;48.730;9.304;2023-05-29T00:40:25;1.50;;;1.40;;
966;SDS011;56108;48.730;9.304;2023-05-29T00:42:34;1.55;;;1.45;;
966;SDS011;56108;48.730;9.304;2023-05-29T00:44:42;0.80;;;0.80;;
966;SDS011;56108;48.730;9.304;2023-05-29T00:46:51;1.23;;;1.13;;
966;SDS011;56108;48.730;9.304;2023-05-29T00:49:03;1.30;;;1.30;;
966;SDS011;56108;48.730;9.304;2023-05-29T00:51:13;2.35;;;1.48;;
966;SDS011;56108;48.730;9.304;2023-05-29T00:53:22;2.00;;;1.58;;
966;SDS011;56108;48.730;9.304;2023-05-29T00:55:31;2.25;;;1.92;;
966;SDS011;56108;48.730;9.304;2023-05-29T00:57:39;1.35;;;1.25;;
966;SDS011;56108;48.730;9.304;2023-05-29T00:59:48;1.33;;;1.23;;
966;SDS011;56108;48.730;9.304;2023-05-29T01:01:58;1.70;;;1.60;;
966;SDS011;56108;48.730;9.304;2023-05-29T01:04:10;2.13;;;1.25;;
966;SDS011;56108;48.730;9.304;2023-05-29T01:06:19;0.80;;;0.80;;
966;SDS011;56108;48.730;9.304;2023-05-29T01:08:28;1.52;;;1.38;;
966;SDS011;56108;48.730;9.304;2023-05-29T01:10:36;1.52;;;1.42;;
966;SDS011;56108;48.730;9.304;2023-05-29T01:15:21;1.05;;;0.95;;
966;SDS011;56108;48.730;9.304;2023-05-29T01:17:37;1.65;;;1.55;;
966;SDS011;56108;48.730;9.304;2023-05-29T01:20:02;1.50;;;1.40;;
966;SDS011;56108;48.730;9.304;2023-05-29T01:22:23;1.10;;;1.10;;
966;SDS011;56108;48.730;9.304;2023-05-29T01:24:45;1.70;;;1.60;;
966;SDS011;56108;48.730;9.304;2023-05-29T01:27:00;1.35;;;1.25;;
966;SDS011;56108;48.730;9.304;2023-05-29T01:29:12;1.48;;;1.40;;
966;SDS011;56108;48.730;9.304;2023-05-29T01:31:23;1.73;;;1.63;;
966;SDS011;56108;48.730;9.304;2023-05-29T01:33:38;1.77;;;1.20;;
966;SDS011;56108;48.730;9.304;2023-05-29T01:35:50;1.17;;;1.08;;
966;SDS011;56108;48.730;9.304;2023-05-29T01:37:59;6.18;;;1.48;;
966;SDS011;56108;48.730;9.304;2023-05-29T01:40:08;2.97;;;2.15;;
966;SDS011;56108;48.730;9.304;2023-05-29T01:42:20;1.30;;;1.20;;
966;SDS011;56108;48.730;9.304;2023-05-29T01:44:28;1.40;;;1.33;;
966;SDS011;56108;48.730;9.304;2023-05-29T01:46:37;1.70;;;1.60;;
966;SDS011;56108;48.730;9.304;2023-05-29T01:48:46;1.25;;;1.15;;
966;SDS011;56108;48.730;9.304;2023-05-29T01:50:54;0.75;;;0.70;;
966;SDS011;56108;48.730;9.304;2023-05-29T01:53:03;1.30;;;1.30;;
966;SDS011;56108;48.730;9.304;2023-05-29T01:55:11;1.33;;;1.23;;
966;SDS011;56108;48.730;9.304;2023-05-29T01:57:21;2.00;;;1.90;;
966;SDS011;56108;48.730;9.304;2023-05-29T01:59:31;1.33;;;1.33;;
966;SDS011;56108;48.730;9.304;2023-05-29T02:01:40;1.65;;;1.15;;
966;SDS011;56108;48.730;9.304;2023-05-29T02:03:49;1.48;;;1.40;;
966;SDS011;56108;48.730;9.304;2023-05-29T02:05:57;1.23;;;1.20;;
966;SDS011;56108;48.730;9.304;2023-05-29T02:08:06;1.08;;;1.02;;
966;SDS011;56108;48.730;9.304;2023-05-29T02:10:17;1.30;;;1.20;;
966;SDS011;56108;48.730;9.304;2023-05-29T02:12:28;1.20;;;1.20;;
966;SDS011;56108;48.730;9.304;2023-05-29T02:14:36;0.80;;;0.80;;
966;SDS011;56108;48.730;9.304;2023-05-29T02:16:45;1.23;;;1.23;;
966;SDS011;56108;48.730;9.304;2023-05-29T02:18:53;1.50;;;1.40;;
966;SDS011;56108;48.730;9.304;2023-05-29T02:21:02;2.20;;;1.98;;
966;SDS011;56108;48.730;9.304;2023-05-29T02:23:10;2.55;;;1.60;;
966;SDS011;56108;48.730;9.304;2023-05-29T02:25:19;2.92;;;2.08;;
966;SDS011;56108;48.730;9.304;2023-05-29T02:27:30;1.33;;;1.23;;
966;SDS011;56108;48.730;9.304;2023-05-29T02:29:38;1.58;;;1.48;;
966;SDS011;56108;48.730;9.304;2023-05-29T02:31:46;1.40;;;1.30;;
966;SDS011;56108;48.730;9.304;2023-05-29T02:33:54;2.55;;;2.35;;
966;SDS011;56108;48.730;9.304;2023-05-29T02:36:02;1.52;;;1.42;;
966;SDS011;56108;48.730;9.304;2023-05-29T02:38:16;1.25;;;1.17;;
966;SDS011;56108;48.730;9.304;2023-05-29T02:40:24;1.50;;;1.40;;
966;SDS011;56108;48.730;9.304;2023-05-29T02:42:37;1.30;;;1.30;;
966;SDS011;56108;48.730;9.304;2023-05-29T02:44:45;2.63;;;1.85;;
966;SDS011;56108;48.730;9.304;2023-05-29T02:46:55;0.85;;;0.85;;
966;SDS011;56108;48.730;9.304;2023-05-29T02:49:02;1.50;;;1.40;;
966;SDS011;56108;48.730;9.304;2023-05-29T02:51:10;1.50;;;1.40;;
966;SDS011;56108;48.730;9.304;2023-05-29T02:53:18;1.13;;;1.05;;
966;SDS011;56108;48.730;9.304;2023-05-29T02:55:26;1.23;;;1.23;;
966;SDS011;56108;48.730;9.304;2023-05-29T02:57:39;1.48;;;1.17;;
966;SDS011;56108;48.730;9.304;2023-05-29T02:59:47;1.90;;;1.80;;
966;SDS011;56108;48.730;9.304;2023-05-29T03:01:55;1.00;;;1.00;;
966;SDS011;56108;48.730;9.304;2023-05-29T03:04:06;1.35;;;1.25;;
966;SDS011;56108;48.730;9.304;2023-05-29T03:06:14;1.58;;;1.48;;
966;SDS011;56108;48.730;9.304;2023-05-29T03:08:22;0.90;;;0.90;;
966;SDS011;56108;48.730;9.304;2023-05-29T03:10:32;1.88;;;1.77;;
966;SDS011;56108;48.730;9.304;2023-05-29T03:12:43;1.60;;;1.50;;
966;SDS011;56108;48.730;9.304;2023-05-29T03:14:52;2.53;;;2.30;;
966;SDS011;56108;48.730;9.304;2023-05-29T03:17:03;1.20;;;1.20;;
966;SDS011;56108;48.730;9.304;2023-05-29T03:19:15;1.67;;;1.40;;
966;SDS011;56108;48.730;9.304;2023-05-29T03:21:23;1.63;;;1.48;;
966;SDS011;56108;48.730;9.304;2023-05-29T03:23:31;1.77;;;1.67;;
966;SDS011;56108;48.730;9.304;2023-05-29T03:25:39;0.80;;;0.80;;
966;SDS011;56108;48.730;9.304;2023-05-29T03:27:50;1.38;;;1.27;;
966;SDS011;56108;48.730;9.304;2023-05-29T03:29:58;0.98;;;0.90;;
966;SDS011;56108;48.730;9.304;2023-05-29T03:32:08;1.10;;;1.00;;
966;SDS011;56108;48.730;9.304;2023-05-29T03:34:16;1.35;;;1.25;;
966;SDS011;56108;48.730;9.304;2023-05-29T03:36:32;0.70;;;0.63;;
966;SDS011;56108;48.730;9.304;2023-05-29T03:38:44;2.22;;;2.13;;
966;SDS011;56108;48.730;9.304;2023-05-29T03:40:57;2.00;;;1.90;;
966;SDS011;56108;48.730;9.304;2023-05-29T03:43:07;1.65;;;1.55;;
966;SDS011;56108;48.730;9.304;2023-05-29T03:45:15;1.52;;;1.40;;
966;SDS011;56108;48.730;9.304;2023-05-29T03:47:23;1.15;;;1.05;;
966;SDS011;56108;48.730;9.304;2023-05-29T03:49:32;3.83;;;1.67;;
966;SDS011;56108;48.730;9.304;2023-05-29T03:51:40;1.50;;;1.40;;
966;SDS011;56108;48.730;9.304;2023-05-29T03:53:48;1.20;;;1.10;;
966;SDS011;56108;48.730;9.304;2023-05-29T03:55:56;1.48;;;1.38;;
966;SDS011;56108;48.730;9.304;2023-05-29T03:58:09;1.75;;;1.65;;
966;SDS011;56108;48.730;9.304;2023-05-29T04:00:17;5.05;;;1.42;;
966;SDS011;56108;48.730;9.304;2023-05-29T04:02:28;1.52;;;1.45;;
966;SDS011;56108;48.730;9.304;2023-05-29T04:04:36;1.50;;;1.40;;
966;SDS011;56108;48.730;9.304;2023-05-29T04:06:44;1.52;;;1.42;;
966;SDS011;56108;48.730;9.304;2023-05-29T04:08:52;1.10;;;1.10;;
966;SDS011;56108;48.730;9.304;2023-05-29T04:11:00;1.65;;;1.48;;
966;SDS011;56108;48.730;9.304;2023-05-29T04:13:10;0.82;;;0.82;;
966;SDS011;56108;48.730;9.304;2023-05-29T04:15:18;2.05;;;1.95;;
966;SDS011;56108;48.730;9.304;2023-05-29T04:17:26;1.08;;;0.70;;
966;SDS011;56108;48.730;9.304;2023-05-29T04:19:35;1.70;;;1.60;;
966;SDS011;56108;48.730;9.304;2023-05-29T04:21:42;2.08;;;1.75;;
966;SDS011;56108;48.730;9.304;2023-05-29T04:23:52;1.73;;;1.55;;
966;SDS011;56108;48.730;9.304;2023-05-29T04:26:00;3.22;;;2.65;;
966;SDS011;56108;48.730;9.304;2023-05-29T04:28:15;3.78;;;2.25;;
966;SDS011;56108;48.730;9.304;2023-05-29T04:30:26;2.60;;;2.40;;
966;SDS011;56108;48.730;9.304;2023-05-29T04:32:34;2.13;;;1.92;;
966;SDS011;56108;48.730;9.304;2023-05-29T04:34:43;3.42;;;3.13;;
966;SDS011;56108;48.730;9.304;2023-05-29T04:36:53;4.22;;;2.80;;
966;SDS011;56108;48.730;9.304;2023-05-29T04:39:03;3.60;;;2.97;;
966;SDS011;56108;48.730;9.304;2023-05-29T04:41:12;3.85;;;2.78;;
966;SDS011;56108;48.730;9.304;2023-05-29T04:43:23;2.92;;;2.65;;
966;SDS011;56108;48.730;9.304;2023-05-29T04:45:37;3.00;;;2.67;;
966;SDS011;56108;48.730;9.304;2023-05-29T04:47:46;3.47;;;2.88;;
966;SDS011;56108;48.730;9.304;2023-05-29T04:49:54;3.70;;;3.40;;
966;SDS011;56108;48.730;9.304;2023-05-29T04:52:04;2.90;;;2.70;;
966;SDS011;56108;48.730;9.304;2023-05-29T04:54:12;4.20;;;3.27;;
966;SDS011;56108;48.730;9.304;2023-05-29T04:56:22;4.10;;;3.03;;
966;SDS011;56108;48.730;9.304;2023-05-29T04:58:34;3.70;;;3.40;;
966;SDS011;56108;48.730;9.304;2023-05-29T05:00:42;4.27;;;3.40;;
966;SDS011;56108;48.730;9.304;2023-05-29T05:02:52;3.07;;;2.77;;
966;SDS011;56108;48.730;9.304;2023-05-29T05:05:01;3.07;;;2.77;;
966;SDS011;56108;48.730;9.304;2023-05-29T05:07:09;2.63;;;2.43;;
966;SDS011;56108;48.730;9.304;2023-05-29T05:09:18;3.73;;;2.97;;
966;SDS011;56108;48.730;9.304;2023-05-29T05:11:26;3.90;;;3.60;;
966;SDS011;56108;48.730;9.304;2023-05-29T05:13:37;2.73;;;2.53;;
966;SDS011;56108;48.730;9.304;2023-05-29T05:15:45;3.20;;;2.90;;
966;SDS011;56108;48.730;9.304;2023-05-29T05:17:53;3.20;;;2.90;;
966;SDS011;56108;48.730;9.304;2023-05-29T05:20:01;3.77;;;3.47;;
966;SDS011;56108;48.730;9.304;2023-05-29T05:22:11;4.40;;;3.37;;
966;SDS011;56108;48.730;9.304;2023-05-29T05:24:19;2.70;;;2.50;;
966;SDS011;56108;48.730;9.304;2023-05-29T05:26:27;3.13;;;2.80;;
966;SDS011;56108;48.730;9.304;2023-05-29T05:28:40;3.10;;;2.53;;
966;SDS011;56108;48.730;9.304;2023-05-29T05:30:51;2.90;;;2.60;;
966;SDS011;56108;48.730;9.304;2023-05-29T05:33:00;4.77;;;3.93;;
966;SDS011;56108;48.730;9.304;2023-05-29T05:35:09;4.03;;;3.30;;
966;SDS011;56108;48.730;9.304;2023-05-29T05:37:18;4.90;;;3.90;;
966;SDS011;56108;48.730;9.304;2023-05-29T05:39:28;3.63;;;3.33;;
966;SDS011;56108;48.730;9.304;2023-05-29T05:41:39;3.60;;;3.00;;
966;SDS011;56108;48.730;9.304;2023-05-29T05:43:53;3.37;;;2.67;;
966;SDS011;56108;48.730;9.304;2023-05-29T05:46:06;3.03;;;2.73;;
966;SDS011;56108;48.730;9.304;2023-05-29T05:48:14;3.00;;;2.60;;
966;SDS011;56108;48.730;9.304;2023-05-29T05:50:23;2.83;;;2.63;;
966;SDS011;56108;48.730;9.304;2023-05-29T05:52:31;3.33;;;3.03;;
966;SDS011;56108;48.730;9.304;2023-05-29T05:54:39;3.20;;;3.00;;
966;SDS011;56108;48.730;9.304;2023-05-29T05:56:49;3.00;;;2.80;;
966;SDS011;56108;48.730;9.304;2023-05-29T05:58:59;2.93;;;2.63;;
966;SDS011;56108;48.730;9.304;2023-05-29T06:01:08;3.53;;;2.97;;
966;SDS011;56108;48.730;9.304;2023-05-29T06:03:16;6.03;;;3.30;;
966;SDS011;56108;48.730;9.304;2023-05-29T06:05:30;3.63;;;3.17;;
966;SDS011;56108;48.730;9.304;2023-05-29T06:07:38;3.90;;;3.50;;
966;SDS011;56108;48.730;9.304;2023-05-29T06:09:47;3.83;;;3.43;;
966;SDS011;56108;48.730;9.304;2023-05-29T06:11:55;4.50;;;3.50;;
966;SDS011;56108;48.730;9.304;2023-05-29T06:14:06;3.60;;;2.83;;
966;SDS011;56108;48.730;9.304;2023-05-29T06:16:14;4.00;;;2.70;;
966;SDS011;56108;48.730;9.304;2023-05-29T06:18:22;2.97;;;2.67;;
966;SDS011;56108;48.730;9.304;2023-05-29T06:20:34;2.80;;;2.60;;
966;SDS011;56108;48.730;9.304;2023-05-29T06:22:43;3.27;;;3.00;;
966;SDS011;56108;48.730;9.304;2023-05-29T06:24:55;3.60;;;3.30;;
966;SDS011;56108;48.730;9.304;2023-05-29T06:27:06;3.80;;;3.40;;
966;SDS011;56108;48.730;9.304;2023-05-29T06:29:17;3.23;;;2.97;;
966;SDS011;56108;48.730;9.304;2023-05-29T06:31:25;5.07;;;3.40;;
966;SDS011;56108;48.730;9.304;2023-05-29T06:33:33;3.27;;;2.97;;
966;SDS011;56108;48.730;9.304;2023-05-29T06:35:42;3.70;;;3.40;;
966;SDS011;56108;48.730;9.304;2023-05-29T06:37:50;2.80;;;2.60;;
966;SDS011;56108;48.730;9.304;2023-05-29T06:39:58;3.10;;;2.90;;
966;SDS011;56108;48.730;9.304;2023-05-29T06:42:06;2.77;;;2.57;;
966;SDS011;56108;48.730;9.304;2023-05-29T06:44:21;3.00;;;2.53;;
966;SDS011;56108;48.730;9.304;2023-05-29T06:46:31;2.80;;;2.57;;
966;SDS011;56108;48.730;9.304;2023-05-29T06:48:39;2.77;;;2.57;;
966;SDS011;56108;48.730;9.304;2023-05-29T06:50:49;3.37;;;2.70;;
966;SDS011;56108;48.730;9.304;2023-05-29T06:53:24;3.43;;;2.67;;
966;SDS011;56108;48.730;9.304;2023-05-29T06:55:33;4.40;;;3.20;;
966;SDS011;56108;48.730;9.304;2023-05-29T06:57:41;5.17;;;3.07;;
966;SDS011;56108;48.730;9.304;2023-05-29T06:59:52;3.37;;;2.80;;
966;SDS011;56108;48.730;9.304;2023-05-29T07:02:01;2.70;;;2.50;;
966;SDS011;56108;48.730;9.304;2023-05-29T07:04:10;3.27;;;2.97;;
966;SDS011;56108;48.730;9.304;2023-05-29T07:06:19;2.90;;;2.63;;
966;SDS011;56108;48.730;9.304;2023-05-29T07:08:27;3.27;;;3.03;;
966;SDS011;56108;48.730;9.304;2023-05-29T07:10:35;2.60;;;2.40;;
966;SDS011;56108;48.730;9.304;2023-05-29T07:12:43;3.17;;;2.87;;
966;SDS011;56108;48.730;9.304;2023-05-29T07:14:54;3.73;;;3.00;;
966;SDS011;56108;48.730;9.304;2023-05-29T07:17:02;3.10;;;2.77;;
966;SDS011;56108;48.730;9.304;2023-05-29T07:19:11;2.73;;;2.40;;
966;SDS011;56108;48.730;9.304;2023-05-29T07:21:26;3.93;;;3.17;;
966;SDS011;56108;48.730;9.304;2023-05-29T07:23:36;2.77;;;2.57;;
966;SDS011;56108;48.730;9.304;2023-05-29T07:25:44;2.70;;;2.50;;
966;SDS011;56108;48.730;9.304;2023-05-29T07:27:52;2.30;;;2.10;;
966;SDS011;56108;48.730;9.304;2023-05-29T07:30:04;2.80;;;2.43;;
966;SDS011;56108;48.730;9.304;2023-05-29T07:32:15;3.13;;;2.57;;
966;SDS011;56108;48.730;9.304;2023-05-29T07:34:23;2.90;;;2.60;;
966;SDS011;56108;48.730;9.304;2023-05-29T07:36:31;2.77;;;2.57;;
966;SDS011;56108;48.730;9.304;2023-05-29T07:38:44;3.30;;;2.67;;
966;SDS011;56108;48.730;9.304;2023-05-29T07:40:54;2.60;;;2.23;;
966;SDS011;56108;48.730;9.304;2023-05-29T07:43:10;2.57;;;2.30;;
966;SDS011;56108;48.730;9.304;2023-05-29T07:45:28;3.73;;;2.90;;
966;SDS011;56108;48.730;9.304;2023-05-29T07:47:36;2.77;;;2.57;;
966;SDS011;56108;48.730;9.304;2023-05-29T07:49:44;2.53;;;2.33;;
966;SDS011;56108;48.730;9.304;2023-05-29T07:51:52;2.57;;;2.27;;
966;SDS011;56108;48.730;9.304;2023-05-29T07:54:03;2.93;;;2.10;;
966;SDS011;56108;48.730;9.304;2023-05-29T07:56:11;2.70;;;2.50;;
966;SDS011;56108;48.730;9.304;2023-05-29T07:58:19;3.63;;;2.30;;
966;SDS011;56108;48.730;9.304;2023-05-29T08:00:31;2.77;;;2.00;;
966;SDS011;56108;48.730;9.304;2023-05-29T08:02:40;2.30;;;2.10;;
966;SDS011;56108;48.730;9.304;2023-05-29T08:05:08;2.70;;;2.50;;
966;SDS011;56108;48.730;9.304;2023-05-29T08:07:17;2.77;;;2.20;;
966;SDS011;56108;48.730;9.304;2023-05-29T08:09:26;2.80;;;2.50;;
966;SDS011;56108;48.730;9.304;2023-05-29T08:11:35;3.17;;;2.80;;
966;SDS011;56108;48.730;9.304;2023-05-29T08:13:43;2.97;;;2.67;;
966;SDS011;56108;48.730;9.304;2023-05-29T08:15:54;2.80;;;2.43;;
966;SDS011;56108;48.730;9.304;2023-05-29T08:18:04;4.00;;;2.20;;
966;SDS011;56108;48.730;9.304;2023-05-29T08:20:12;2.30;;;2.13;;
966;SDS011;56108;48.730;9.304;2023-05-29T08:22:22;2.20;;;2.10;;
966;SDS011;56108;48.730;9.304;2023-05-29T08:24:35;2.30;;;2.10;;
966;SDS011;56108;48.730;9.304;2023-05-29T08:26:43;2.73;;;2.53;;
966;SDS011;56108;48.730;9.304;2023-05-29T08:28:51;3.37;;;3.07;;
966;SDS011;56108;48.730;9.304;2023-05-29T08:31:02;3.80;;;3.30;;
966;SDS011;56108;48.730;9.304;2023-05-29T08:33:10;2.53;;;2.20;;
966;SDS011;56108;48.730;9.304;2023-05-29T08:35:18;2.80;;;2.60;;
966;SDS011;56108;48.730;9.304;2023-05-29T08:37:26;2.70;;;2.47;;
966;SDS011;56108;48.730;9.304;2023-05-29T08:39:34;3.40;;;3.07;;
966;SDS011;56108;48.730;9.304;2023-05-29T08:41:46;3.40;;;2.73;;
966;SDS011;56108;48.730;9.304;2023-05-29T08:44:04;3.97;;;2.57;;
966;SDS011;56108;48.730;9.304;2023-05-29T08:46:18;2.20;;;1.90;;
966;SDS011;56108;48.730;9.304;2023-05-29T08:48:27;3.73;;;2.40;;
966;SDS011;56108;48.730;9.304;2023-05-29T08:50:37;2.43;;;2.13;;
966;SDS011;56108;48.730;9.304;2023-05-29T08:52:50;3.20;;;2.60;;
966;SDS011;56108;48.730;9.304;2023-05-29T08:54:59;4.27;;;2.83;;
966;SDS011;56108;48.730;9.304;2023-05-29T08:57:08;2.53;;;2.23;;
966;SDS011;56108;48.730;9.304;2023-05-29T08:59:17;2.80;;;2.60;;
966;SDS011;56108;48.730;9.304;2023-05-29T09:01:30;3.63;;;3.03;;
966;SDS011;56108;48.730;9.304;2023-05-29T09:03:39;2.80;;;2.60;;
966;SDS011;56108;48.730;9.304;2023-05-29T09:05:47;3.60;;;3.03;;
966;SDS011;56108;48.730;9.304;2023-05-29T09:07:56;4.10;;;2.80;;
966;SDS011;56108;48.730;9.304;2023-05-29T09:10:04;3.27;;;2.30;;
966;SDS011;56108;48.730;9.304;2023-05-29T09:12:13;2.90;;;2.60;;
966;SDS011;56108;48.730;9.304;2023-05-29T09:14:33;5.50;;;3.10;;
966;SDS011;56108;48.730;9.304;2023-05-29T09:16:44;3.53;;;2.67;;
966;SDS011;56108;48.730;9.304;2023-05-29T09:18:59;3.00;;;2.70;;
966;SDS011;56108;48.730;9.304;2023-05-29T09:21:17;3.20;;;2.33;;
966;SDS011;56108;48.730;9.304;2023-05-29T09:23:34;3.27;;;2.83;;
966;SDS011;56108;48.730;9.304;2023-05-29T09:25:43;3.63;;;3.23;;
966;SDS011;56108;48.730;9.304;2023-05-29T09:27:52;3.60;;;2.53;;
966;SDS011;56108;48.730;9.304;2023-05-29T09:30:02;3.03;;;2.80;;
966;SDS011;56108;48.730;9.304;2023-05-29T09:32:13;3.57;;;2.90;;
966;SDS011;56108;48.730;9.304;2023-05-29T09:34:23;2.83;;;2.43;;
966;SDS011;56108;48.730;9.304;2023-05-29T09:36:32;3.20;;;2.90;;
966;SDS011;56108;48.730;9.304;2023-05-29T09:38:40;2.83;;;2.30;;
966;SDS011;56108;48.730;9.304;2023-05-29T09:41:03;2.73;;;2.37;;
966;SDS011;56108;48.730;9.304;2023-05-29T09:43:11;3.00;;;2.60;;
966;SDS011;56108;48.730;9.304;2023-05-29T09:45:21;3.60;;;2.53;;
966;SDS011;56108;48.730;9.304;2023-05-29T09:47:34;3.53;;;2.20;;
966;SDS011;56108;48.730;9.304;2023-05-29T09:49:42;3.40;;;2.80;;
966;SDS011;56108;48.730;9.304;2023-05-29T09:51:52;3.27;;;2.50;;
966;SDS011;56108;48.730;9.304;2023-05-29T09:54:12;2.90;;;2.70;;
966;SDS011;56108;48.730;9.304;2023-05-29T09:56:23;2.87;;;2.57;;
966;SDS011;56108;48.730;9.304;2023-05-29T09:58:32;2.80;;;2.60;;
966;SDS011;56108;48.730;9.304;2023-05-29T10:00:43;6.80;;;2.93;;
966;SDS011;56108;48.730;9.304;2023-05-29T10:02:54;4.40;;;3.40;;
966;SDS011;56108;48.730;9.304;2023-05-29T10:05:03;3.13;;;2.83;;
966;SDS011;56108;48.730;9.304;2023-05-29T10:07:20;3.00;;;2.60;;
966;SDS011;56108;48.730;9.304;2023-05-29T10:09:33;4.10;;;2.60;;
966;SDS011;56108;48.730;9.304;2023-05-29T10:11:43;2.93;;;2.73;;
966;SDS011;56108;48.730;9.304;2023-05-29T10:13:54;2.27;;;2.07;;
966;SDS011;56108;48.730;9.304;2023-05-29T10:16:06;2.53;;;2.27;;
966;SDS011;56108;48.730;9.304;2023-05-29T10:18:21;2.40;;;2.20;;
966;SDS011;56108;48.730;9.304;2023-05-29T10:20:33;2.80;;;2.40;;
966;SDS011;56108;48.730;9.304;2023-05-29T10:22:45;4.30;;;1.93;;
966;SDS011;56108;48.730;9.304;2023-05-29T10:24:54;2.23;;;2.03;;
966;SDS011;56108;48.730;9.304;2023-05-29T10:27:05;3.90;;;2.00;;
966;SDS011;56108;48.730;9.304;2023-05-29T10:29:15;6.20;;;5.60;;
966;SDS011;56108;48.730;9.304;2023-05-29T10:31:28;3.70;;;2.67;;
966;SDS011;56108;48.730;9.304;2023-05-29T10:33:47;2.40;;;2.20;;
966;SDS011;56108;48.730;9.304;2023-05-29T10:36:12;2.67;;;2.47;;
966;SDS011;56108;48.730;9.304;2023-05-29T10:38:21;2.40;;;2.20;;
966;SDS011;56108;48.730;9.304;2023-05-29T10:40:31;4.63;;;2.27;;
966;SDS011;56108;48.730;9.304;2023-05-29T10:42:45;3.40;;;2.40;;
966;SDS011;56108;48.730;9.304;2023-05-29T10:44:57;2.43;;;2.23;;
966;SDS011;56108;48.730;9.304;2023-05-29T10:47:05;4.70;;;2.30;;
966;SDS011;56108;48.730;9.304;2023-05-29T10:49:18;4.07;;;2.30;;
966;SDS011;56108;48.730;9.304;2023-05-29T10:51:27;3.33;;;2.70;;
966;SDS011;56108;48.730;9.304;2023-05-29T10:53:37;4.07;;;2.80;;
966;SDS011;56108;48.730;9.304;2023-05-29T10:55:50;2.40;;;2.20;;
966;SDS011;56108;48.730;9.304;2023-05-29T10:58:04;2.33;;;2.13;;
966;SDS011;56108;48.730;9.304;2023-05-29T11:00:15;3.43;;;2.50;;
966;SDS011;56108;48.730;9.304;2023-05-29T11:02:27;3.23;;;2.20;;
966;SDS011;56108;48.730;9.304;2023-05-29T11:04:38;2.13;;;1.93;;
966;SDS011;56108;48.730;9.304;2023-05-29T11:06:46;3.20;;;1.90;;
966;SDS011;56108;48.730;9.304;2023-05-29T11:08:56;2.67;;;2.47;;
966;SDS011;56108;48.730;9.304;2023-05-29T11:11:07;2.67;;;2.10;;
966;SDS011;56108;48.730;9.304;2023-05-29T11:13:25;1.57;;;1.47;;
966;SDS011;56108;48.730;9.304;2023-05-29T11:15:34;3.80;;;2.53;;
966;SDS011;56108;48.730;9.304;2023-05-29T11:17:43;2.40;;;2.20;;
966;SDS011;56108;48.730;9.304;2023-05-29T11:19:55;2.37;;;1.80;;
966;SDS011;56108;48.730;9.304;2023-05-29T11:22:05;3.60;;;2.40;;
966;SDS011;56108;48.730;9.304;2023-05-29T11:24:22;3.03;;;2.43;;
966;SDS011;56108;48.730;9.304;2023-05-29T11:26:33;1.97;;;1.73;;
966;SDS011;56108;48.730;9.304;2023-05-29T11:28:44;4.73;;;2.20;;
966;SDS011;56108;48.730;9.304;2023-05-29T11:30:52;1.80;;;1.47;;
966;SDS011;56108;48.730;9.304;2023-05-29T11:33:03;2.47;;;2.20;;
966;SDS011;56108;48.730;9.304;2023-05-29T11:35:18;2.10;;;1.90;;
966;SDS011;56108;48.730;9.304;2023-05-29T11:37:29;1.70;;;1.60;;
966;SDS011;56108;48.730;9.304;2023-05-29T11:39:39;2.83;;;1.83;;
966;SDS011;56108;48.730;9.304;2023-05-29T11:41:49;2.23;;;2.03;;
966;SDS011;56108;48.730;9.304;2023-05-29T11:43:59;2.87;;;2.03;;
966;SDS011;56108;48.730;9.304;2023-05-29T11:46:15;2.70;;;1.83;;
966;SDS011;56108;48.730;9.304;2023-05-29T11:48:24;1.80;;;1.70;;
966;SDS011;56108;48.730;9.304;2023-05-29T11:50:36;2.30;;;1.93;;
966;SDS011;56108;48.730;9.304;2023-05-29T11:52:45;2.00;;;1.73;;
966;SDS011;56108;48.730;9.304;2023-05-29T11:54:53;2.33;;;2.10;;
966;SDS011;56108;48.730;9.304;2023-05-29T11:57:13;1.67;;;1.57;;
966;SDS011;56108;48.730;9.304;2023-05-29T11:59:29;3.10;;;2.17;;
966;SDS011;56108;48.730;9.304;2023-05-29T12:01:43;2.10;;;2.00;;
966;SDS011;56108;48.730;9.304;2023-05-29T12:03:51;2.03;;;1.70;;
966;SDS011;56108;48.730;9.304;2023-05-29T12:06:03;2.37;;;2.17;;
966;SDS011;56108;48.730;9.304;2023-05-29T12:08:12;2.50;;;2.30;;
966;SDS011;56108;48.730;9.304;2023-05-29T12:10:20;2.42;;;2.10;;
966;SDS011;56108;48.730;9.304;2023-05-29T12:12:29;1.87;;;1.70;;
966;SDS011;56108;48.730;9.304;2023-05-29T12:14:38;2.47;;;2.10;;
966;SDS011;56108;48.730;9.304;2023-05-29T12:16:46;1.83;;;1.73;;
966;SDS011;56108;48.730;9.304;2023-05-29T12:18:57;2.05;;;1.85;;
966;SDS011;56108;48.730;9.304;2023-05-29T12:21:08;2.23;;;2.03;;
966;SDS011;56108;48.730;9.304;2023-05-29T12:23:17;2.08;;;1.88;;
966;SDS011;56108;48.730;9.304;2023-05-29T12:25:27;2.47;;;2.27;;
966;SDS011;56108;48.730;9.304;2023-05-29T12:27:37;2.15;;;1.98;;
966;SDS011;56108;48.730;9.304;2023-05-29T12:29:48;2.37;;;2.17;;
966;SDS011;56108;48.730;9.304;2023-05-29T12:31:57;2.07;;;1.97;;
966;SDS011;56108;48.730;9.304;2023-05-29T12:34:07;1.70;;;1.57;;
966;SDS011;56108;48.730;9.304;2023-05-29T12:36:19;2.23;;;2.03;;
966;SDS011;56108;48.730;9.304;2023-05-29T12:38:32;2.07;;;1.90;;
966;SDS011;56108;48.730;9.304;2023-05-29T12:40:41;1.87;;;1.77;;
966;SDS011;56108;48.730;9.304;2023-05-29T12:42:57;2.50;;;1.80;;
966;SDS011;56108;48.730;9.304;2023-05-29T12:45:07;1.95;;;1.85;;
966;SDS011;56108;48.730;9.304;2023-05-29T12:47:16;2.30;;;1.90;;
966;SDS011;56108;48.730;9.304;2023-05-29T12:49:35;2.42;;;1.67;;
966;SDS011;56108;48.730;9.304;2023-05-29T12:51:46;2.03;;;1.92;;
966;SDS011;56108;48.730;9.304;2023-05-29T12:53:54;1.83;;;1.73;;
966;SDS011;56108;48.730;9.304;2023-05-29T12:56:03;3.27;;;2.07;;
966;SDS011;56108;48.730;9.304;2023-05-29T12:58:11;2.60;;;1.80;;
966;SDS011;56108;48.730;9.304;2023-05-29T13:00:20;2.77;;;2.00;;
966;SDS011;56108;48.730;9.304;2023-05-29T13:02:29;3.63;;;1.90;;
966;SDS011;56108;48.730;9.304;2023-05-29T13:04:37;2.97;;;2.10;;
966;SDS011;56108;48.730;9.304;2023-05-29T13:06:48;2.03;;;1.90;;
966;SDS011;56108;48.730;9.304;2023-05-29T13:08:56;2.30;;;1.90;;
966;SDS011;56108;48.730;9.304;2023-05-29T13:11:04;3.00;;;2.70;;
966;SDS011;56108;48.730;9.304;2023-05-29T13:13:12;1.65;;;1.55;;
966;SDS011;56108;48.730;9.304;2023-05-29T13:15:20;1.80;;;1.70;;
966;SDS011;56108;48.730;9.304;2023-05-29T13:17:29;2.15;;;1.73;;
966;SDS011;56108;48.730;9.304;2023-05-29T13:19:38;2.15;;;1.95;;
966;SDS011;56108;48.730;9.304;2023-05-29T13:21:49;1.88;;;1.77;;
966;SDS011;56108;48.730;9.304;2023-05-29T13:23:58;1.83;;;1.65;;
966;SDS011;56108;48.730;9.304;2023-05-29T13:26:07;2.65;;;1.95;;
966;SDS011;56108;48.730;9.304;2023-05-29T13:28:15;2.20;;;2.00;;
966;SDS011;56108;48.730;9.304;2023-05-29T13:30:23;2.15;;;1.95;;
966;SDS011;56108;48.730;9.304;2023-05-29T13:32:31;4.60;;;2.27;;